x

Buoy E01 - Central Maine Shelf (44032) Wave Buoy

1:04pm - Fri 23rd Feb 2018 All times are EST. -5 hours from GMT.

  • Sig Wave height 2.6ft
  • Peak Period 5s
  • Wind
    13mph, 16mph gusts
  • Air Temp 33°f
  • Sea Pressure 1035.4mb
  • Buoy E01 - Central Maine Shelf
  • Buoy E01 - Central Maine Shelf

More Historic Weather Station data

Upgrade to MSW Pro to gain access to the past 30 days of data for over 8000 Wavebouys and Weather Stations around the globe.

Join

Comparision Forecast

View Surf forecast
   
Fri 02/23 1:04pm 2.5ft 5s 13 16 mph 1035.4mb - 33f
12:04pm 2.5ft 5s 13 16 mph 1037.2mb - 33f
11:04am 2.5ft 4s 13 18 mph 1038mb - 33f
10:04am 2.5ft 4s 13 18 mph 1039.1mb - 32f
9:04am 2.5ft 4s 16 20 mph 1039.1mb - 32f
8:04am 2ft 3s 13 18 mph 1039.8mb - 31f
7:04am 2ft 4s 16 18 mph 1039.6mb - 31f
6:04am 2ft 4s 16 18 mph 1039.5mb - 31f
5:04am 2ft 4s 13 18 mph 1039.8mb - 31f
4:04am 1.6ft 6s 13 16 mph 1039.4mb - 31f
3:04am 2ft 4s 11 13 mph 1038.9mb - 32f
2:04am 2ft 3s 16 16 mph 1039.1mb - 32f
1:04am 1.3ft 2s 13 16 mph 1039.4mb - 34f
12:04am 2ft 8s 13 18 mph 1038.3mb - 34f
Thu 02/22 11:04pm 1ft 2s 13 16 mph 1038.7mb - 35f
10:04pm 1ft 2s 11 11 mph 1038.3mb - 35f
9:04pm 1.6ft 8s 9 13 mph 1038.1mb - 35f
8:04pm 1ft  -  11 11 mph 1037.5mb - 35f
7:04pm 2ft 8s 9 11 mph 1037.6mb - 36f
6:04pm 2.5ft 8s 7 9 mph 1037.3mb - 36f
5:04pm 2ft 8s 11 13 mph 1037.1mb - 37f
4:04pm 2ft 8s 11 13 mph 1036.3mb - 36f
3:04pm 2ft 6s 7 9 mph 1036mb - 35f
2:04pm 1.6ft 6s 4 7 mph 1036.5mb - 35f
1:04pm  -   -  4 7 mph 1036.4mb - 35f
12:04pm 1.6ft 6s 4 9 mph 1037.7mb - 35f
11:04am 1.6ft 6s 7 11 mph 1037.5mb - 35f
10:04am 2ft 8s 9 11 mph 1038.5mb - 35f
9:04am 2ft 6s 13 16 mph 1037.4mb - 34f
8:04am 2ft 3s 16 18 mph 1037.1mb - 35f
7:04am 2.5ft 4s 20 25 mph 1036.1mb - 36f
6:04am 3ft 4s 20 22 mph 1035mb - 36f
5:04am  -   -  20 22 mph 1033.9mb - 38f
4:04am 3.5ft 8s 18 25 mph 1033.1mb - 39f
3:04am 4.5ft 8s 18 22 mph 1032.1mb - 40f
1:04am 5ft 8s 20 25 mph 1029.8mb - 43f
12:04am 5ft 8s 16 18 mph 1028.3mb - 44f
Wed 02/21 11:04pm 6ft 8s 11 13 mph 1026.4mb - 44f
10:04pm 5.5ft 8s 7 11 mph 1024.9mb - 44f
9:04pm 5.5ft 8s 11 13 mph 1024mb - 47f
8:04pm 5.5ft 8s 11 13 mph 1022.2mb - 47f
7:04pm 5ft 6s 9 11 mph 1020.6mb - 44f
6:04pm 5ft 6s 16 18 mph 1017.6mb - 44f
5:04pm 5ft 5s 18 22 mph 1016.1mb - 46f
4:04pm 5ft 6s 18 20 mph 1015.2mb - 45f
3:04pm 5ft 6s 13 16 mph 1015.7mb - 44f
2:04pm 5ft 6s 16 18 mph 1015.5mb - 44f
1:04pm 4.5ft 6s 13 16 mph 1016.6mb - 43f
12:04pm 5ft 6s 13 18 mph 1017.6mb - 42f
11:04am 4.5ft 8s 16 20 mph 1018.8mb - 43f
10:04am 3.5ft 6s 11 13 mph 1019.4mb - 41f
9:04am 3.5ft 6s 9 9 mph 1020.1mb - 40f
8:04am 3.5ft 8s 7 9 mph 1020.6mb - 39f
7:04am 3.5ft 6s 7 7 mph 1020.9mb - 38f
6:04am 3.5ft 8s 4 7 mph 1021.4mb - 37f
5:04am 4ft 6s 7 9 mph 1021.9mb - 38f
4:04am 3.5ft 6s 4 4 mph 1022.4mb - 38f
3:04am 3.5ft 5s 2 2 mph 1022.5mb - 38f
2:04am 3.5ft 6s 2 4 mph 1023.2mb - 38f
1:04am 4ft 6s 7 7 mph 1023.7mb - 39f
12:04am 4.5ft 6s 7 7 mph 1024mb - 39f
Tue 02/20 11:04pm 4ft 6s 9 9 mph 1023.9mb - 39f
10:04pm 4ft 6s 9 11 mph 1023.8mb - 39f
9:04pm 3.5ft 8s 9 11 mph 1024.6mb - 39f
8:04pm 4ft 6s 9 11 mph 1024.2mb - 39f
7:04pm 4.5ft 11s 11 13 mph 1024.1mb - 39f
6:04pm 3.5ft 8s 9 11 mph 1023.7mb - 39f
5:04pm 4.5ft 6s 11 13 mph 1023.2mb - 39f
4:04pm 4.5ft 11s 11 13 mph 1022.6mb - 39f
3:04pm 4.5ft 11s 11 13 mph 1022.9mb - 39f
1:04pm 4.5ft 11s 9 11 mph 1022.7mb - 39f
12:04pm 4.5ft 6s 9 11 mph 1022.8mb - 39f
11:04am 4ft 6s 9 11 mph 1023.3mb - 40f
10:04am 4.5ft 6s 7 9 mph 1023.9mb - 40f
9:04am 4.5ft 6s 4 7 mph 1024mb - 40f
8:04am 5ft 6s 4 7 mph 1023.7mb - 40f
7:04am 5.5ft 8s  -  2 mph 1023.4mb - 40f
6:04am 5ft 6s 4 4 mph 1022.5mb - 41f
5:04am 5.5ft 6s 7 7 mph 1022.3mb - 41f
4:04am 5ft 6s 4 7 mph 1022.3mb - 41f
3:04am 5ft 6s 9 11 mph 1022.6mb - 41f
2:04am 5ft 6s 9 11 mph 1022.7mb - 42f
1:04am 4.5ft 6s 13 16 mph 1023.1mb - 42f
12:04am 5ft 6s 16 18 mph 1023.5mb - 42f
Mon 02/19 11:04pm 5ft 6s 20 25 mph 1023.9mb - 42f
10:04pm 6ft 6s 18 20 mph 1024mb 40f 42f
9:04pm 7ft 8s 20 25 mph 1024.8mb - 42f